Time;durP1;ratioP1;P1;durP2;ratioP2;P2;SDS_P1;SDS_P2;PMS_P1;PMS_P2;Temp;Humidity;BMP_temperature;BMP_pressure;BME280_temperature;BME280_humidity;BME280_pressure;Samples;Min_cycle;Max_cycle;Signal;HPM_P1;HPM_P2
2023/08/06 00:01:14;;;;;;;18.50;13.35;;;;;;;16.04;100.00;100404.06;5047468;28;20233;-71
2023/08/06 00:03:40;;;;;;;19.70;12.43;;;;;;;16.07;100.00;100411.00;5048445;28;20151;-71
2023/08/06 00:06:06;;;;;;;18.98;13.57;;;;;;;16.15;100.00;100409.28;5049903;28;20808;-71
2023/08/06 00:08:31;;;;;;;21.55;13.80;;;;;;;16.12;100.00;100412.28;5046651;28;20181;-71
2023/08/06 00:10:57;;;;;;;18.23;13.60;;;;;;;15.96;100.00;100409.28;5048360;28;20084;-71
2023/08/06 00:13:22;;;;;;;17.27;14.55;;;;;;;16.03;100.00;100408.59;5043267;28;20384;-72
2023/08/06 00:15:48;;;;;;;19.23;14.50;;;;;;;16.06;100.00;100399.38;5037210;28;20921;-72
2023/08/06 00:18:13;;;;;;;19.58;13.30;;;;;;;16.06;100.00;100399.38;5041547;28;20585;-71
2023/08/06 00:20:40;;;;;;;19.67;14.10;;;;;;;16.09;100.00;100398.25;5066906;28;20043;-71
2023/08/06 00:23:06;;;;;;;22.00;14.52;;;;;;;15.95;100.00;100403.06;5050442;28;20063;-71
2023/08/06 00:25:31;;;;;;;20.10;14.57;;;;;;;15.90;100.00;100410.72;5047109;28;20044;-71
2023/08/06 00:27:57;;;;;;;20.35;14.88;;;;;;;15.87;100.00;100404.81;5053445;28;20033;-71
2023/08/06 00:30:23;;;;;;;20.88;14.88;;;;;;;15.90;100.00;100402.66;5047208;28;20155;-71
2023/08/06 00:32:50;;;;;;;23.05;15.57;;;;;;;15.83;100.00;100403.38;5046827;28;20309;-71
2023/08/06 00:35:18;;;;;;;22.27;14.93;;;;;;;15.70;100.00;100412.56;5045459;28;20032;-71
2023/08/06 00:37:44;;;;;;;26.50;16.48;;;;;;;15.74;100.00;100400.53;5046466;28;20044;-71
2023/08/06 00:40:09;;;;;;;23.40;17.33;;;;;;;15.68;100.00;100411.00;5047530;28;20032;-72
2023/08/06 00:42:35;;;;;;;21.67;16.55;;;;;;;15.82;100.00;100412.44;5046806;28;20037;-72
2023/08/06 00:45:01;;;;;;;24.60;17.27;;;;;;;15.87;100.00;100416.41;5050196;28;20040;-72
2023/08/06 00:47:27;;;;;;;22.52;17.30;;;;;;;15.80;100.00;100408.03;5047648;28;20129;-72
2023/08/06 00:49:52;;;;;;;31.85;19.10;;;;;;;15.73;100.00;100414.97;5050469;28;20037;-71
2023/08/06 00:52:18;;;;;;;30.02;19.30;;;;;;;15.46;100.00;100425.50;5046780;28;20037;-71
2023/08/06 00:54:43;;;;;;;30.63;20.23;;;;;;;15.34;100.00;100437.38;5050610;28;20071;-71
2023/08/06 00:57:09;;;;;;;26.13;19.55;;;;;;;15.53;100.00;100443.63;5051961;28;20076;-71
2023/08/06 00:59:35;;;;;;;31.13;19.75;;;;;;;15.55;100.00;100443.50;5054003;28;20076;-71
2023/08/06 01:02:01;;;;;;;31.67;20.20;;;;;;;15.68;100.00;100438.75;5044133;28;20037;-72
2023/08/06 01:04:26;;;;;;;27.95;20.45;;;;;;;15.53;100.00;100440.94;5048093;28;20053;-71
2023/08/06 01:06:58;;;;;;;35.75;21.67;;;;;;;15.59;100.00;100444.06;5048415;28;20076;-71
2023/08/06 01:09:54;;;;;;;32.70;20.65;;;;;;;15.46;100.00;100447.88;5047759;28;20145;-71
2023/08/06 01:12:34;;;;;;;35.05;21.95;;;;;;;15.53;100.00;100440.94;5052199;28;20144;-71
2023/08/06 01:15:11;;;;;;;29.80;20.75;;;;;;;15.48;100.00;100439.66;5044351;28;20076;-71
2023/08/06 01:17:37;;;;;;;31.50;21.05;;;;;;;15.45;100.00;100440.78;5039443;28;20067;-71
2023/08/06 01:20:03;;;;;;;37.45;21.75;;;;;;;15.51;100.00;100442.94;5044328;28;20033;-71
2023/08/06 01:22:29;;;;;;;31.13;20.85;;;;;;;15.51;100.00;100442.06;5044990;28;20159;-71
2023/08/06 01:24:55;;;;;;;26.00;19.58;;;;;;;15.60;100.00;100443.06;5050384;28;20733;-71
2023/08/06 01:27:28;;;;;;;36.70;22.20;;;;;;;15.57;100.00;100444.22;5047058;28;20060;-72
2023/08/06 01:30:07;;;;;;;40.05;24.42;;;;;;;15.49;100.00;100444.91;5052410;28;20136;-71
2023/08/06 01:32:35;;;;;;;37.95;24.15;;;;;;;15.44;100.00;100457.91;5057697;28;20982;-71
2023/08/06 01:35:03;;;;;;;42.75;26.63;;;;;;;15.39;100.00;100456.63;5047871;28;20074;-71
2023/08/06 01:37:30;;;;;;;41.10;27.20;;;;;;;15.39;100.00;100464.69;5048439;28;20040;-70
2023/08/06 01:39:55;;;;;;;39.70;26.02;;;;;;;15.46;100.00;100455.94;5054497;28;20520;-71
2023/08/06 01:42:21;;;;;;;48.80;28.17;;;;;;;15.33;100.00;100460.72;5043623;28;20042;-71
2023/08/06 01:44:46;;;;;;;47.05;27.80;;;;;;;15.43;100.00;100455.38;5023297;28;20112;-71
2023/08/06 01:47:12;;;;;;;48.78;26.65;;;;;;;15.51;100.00;100458.19;5045741;28;20041;-72
2023/08/06 01:49:37;;;;;;;41.83;26.83;;;;;;;15.62;100.00;100444.66;5077505;27;20037;-71
2023/08/06 01:52:03;;;;;;;44.75;27.60;;;;;;;15.62;100.00;100436.59;5045268;28;20826;-72
2023/08/06 01:54:29;;;;;;;45.75;27.60;;;;;;;15.53;100.00;100432.03;5049606;28;20481;-71
2023/08/06 01:56:54;;;;;;;39.20;25.80;;;;;;;15.57;100.00;100424.56;5061188;28;20113;-71
2023/08/06 01:59:20;;;;;;;34.33;24.02;;;;;;;15.75;100.00;100426.44;5046143;28;20144;-71
2023/08/06 02:01:46;;;;;;;34.75;24.88;;;;;;;15.74;100.00;100424.72;5047137;28;20067;-71
2023/08/06 02:04:11;;;;;;;31.95;23.20;;;;;;;15.71;100.00;100419.66;5048037;28;20107;-71
2023/08/06 02:06:37;;;;;;;35.83;23.90;;;;;;;15.74;100.00;100416.66;5045288;28;20102;-71
2023/08/06 02:09:03;;;;;;;36.13;23.98;;;;;;;15.70;100.00;100404.50;5051430;28;20086;-71
2023/08/06 02:11:28;;;;;;;33.28;21.65;;;;;;;15.79;100.00;100410.88;5038675;28;20065;-72
2023/08/06 02:13:54;;;;;;;32.35;21.52;;;;;;;15.75;100.00;100412.13;5046959;28;20495;-71
2023/08/06 02:16:19;;;;;;;26.58;19.33;;;;;;;15.81;100.00;100403.50;5053954;28;20095;-71
2023/08/06 02:18:45;;;;;;;28.92;20.75;;;;;;;15.77;100.00;100405.66;5042469;28;20053;-71
2023/08/06 02:21:11;;;;;;;29.13;20.20;;;;;;;15.78;100.00;100404.66;5054409;28;20038;-71
2023/08/06 02:23:36;;;;;;;29.83;19.00;;;;;;;15.72;100.00;100390.94;5048652;28;20502;-71
2023/08/06 02:26:03;;;;;;;30.35;20.05;;;;;;;15.69;100.00;100399.28;5042363;28;20049;-71
2023/08/06 02:28:29;;;;;;;28.40;18.70;;;;;;;15.65;100.00;100401.38;5053491;28;20040;-71
2023/08/06 02:30:55;;;;;;;34.53;21.48;;;;;;;15.72;100.00;100389.09;5052318;28;20036;-71
2023/08/06 02:33:20;;;;;;;31.23;19.42;;;;;;;15.65;100.00;100393.31;5030112;28;20033;-71
2023/08/06 02:35:47;;;;;;;29.48;19.92;;;;;;;15.51;100.00;100397.25;5049315;28;20130;-71
2023/08/06 02:38:12;;;;;;;33.92;20.52;;;;;;;15.62;100.00;100400.81;5048845;28;20573;-70
2023/08/06 02:40:45;;;;;;;31.80;19.90;;;;;;;15.61;100.00;100393.69;5053944;28;20032;-71
2023/08/06 02:43:11;;;;;;;36.63;21.20;;;;;;;15.58;100.00;100394.84;5083277;27;20043;-71
2023/08/06 02:45:36;;;;;;;32.92;21.40;;;;;;;15.59;100.00;100391.16;5048154;28;20043;-71
2023/08/06 02:48:02;;;;;;;39.60;22.90;;;;;;;15.54;100.00;100390.75;5049575;28;20502;-71
2023/08/06 02:50:28;;;;;;;28.52;18.55;;;;;;;15.63;100.00;100386.38;5051440;28;20033;-71
2023/08/06 02:52:54;;;;;;;34.22;21.42;;;;;;;15.64;100.00;100386.25;5050072;28;20041;-71
2023/08/06 02:55:19;;;;;;;33.85;21.17;;;;;;;15.71;100.00;100379.34;5048084;28;20308;-72
2023/08/06 02:57:47;;;;;;;32.05;19.45;;;;;;;15.78;100.00;100385.81;5048764;28;20036;-71
2023/08/06 03:00:13;;;;;;;39.88;21.35;;;;;;;15.84;100.00;100381.72;5050439;28;20574;-71
2023/08/06 03:02:39;;;;;;;30.20;20.80;;;;;;;15.81;100.00;100376.59;5059271;28;20029;-71
2023/08/06 03:05:17;;;;;;;41.53;23.13;;;;;;;15.90;100.00;100364.16;5053289;28;20149;-71
2023/08/06 03:07:45;;;;;;;32.30;20.75;;;;;;;15.93;100.00;100364.72;5051790;28;20106;-71
2023/08/06 03:10:23;;;;;;;28.88;18.95;;;;;;;15.93;100.00;100361.19;5051506;28;20045;-71
2023/08/06 03:12:51;;;;;;;36.70;20.15;;;;;;;15.97;100.00;100350.00;5034402;28;20036;-71
2023/08/06 03:15:18;;;;;;;34.88;20.65;;;;;;;16.01;100.00;100348.75;5049868;28;20106;-71
2023/08/06 03:17:45;;;;;;;30.30;19.48;;;;;;;16.04;100.00;100347.59;5064277;28;20033;-71
2023/08/06 03:20:11;;;;;;;29.60;21.15;;;;;;;16.01;100.00;100343.34;5044484;28;20032;-71
2023/08/06 03:22:37;;;;;;;30.98;20.85;;;;;;;16.00;100.00;100346.16;5043995;28;21499;-71
2023/08/06 03:25:03;;;;;;;33.15;21.85;;;;;;;15.91;100.00;100347.88;5051827;28;20045;-71
2023/08/06 03:27:29;;;;;;;29.67;18.77;;;;;;;15.89;100.00;100336.44;5049929;28;20041;-71
2023/08/06 03:29:55;;;;;;;27.42;18.95;;;;;;;15.87;100.00;100349.19;5050499;28;20041;-71
2023/08/06 03:32:23;;;;;;;32.35;19.58;;;;;;;15.89;100.00;100349.03;5048509;28;20033;-71
2023/08/06 03:34:49;;;;;;;33.10;20.35;;;;;;;15.88;100.00;100344.66;5027453;28;20034;-71
2023/08/06 03:37:15;;;;;;;27.52;17.63;;;;;;;15.94;100.00;100347.59;5045526;28;20091;-71
2023/08/06 03:39:40;;;;;;;30.80;20.80;;;;;;;16.00;100.00;100343.47;5051208;28;20052;-71
2023/08/06 03:42:06;;;;;;;36.55;22.35;;;;;;;15.95;100.00;100341.22;5048913;28;20029;-71
2023/08/06 03:44:32;;;;;;;29.17;19.85;;;;;;;15.97;100.00;100338.41;5052126;28;20033;-71
2023/08/06 03:46:57;;;;;;;29.92;20.38;;;;;;;15.98;100.00;100342.78;5080086;27;20053;-71
2023/08/06 03:49:23;;;;;;;33.67;20.88;;;;;;;15.98;100.00;100337.41;5064354;28;20923;-71
2023/08/06 03:51:48;;;;;;;33.70;20.05;;;;;;;16.01;100.00;100342.47;5047426;28;20962;-71
2023/08/06 03:54:14;;;;;;;25.73;17.90;;;;;;;16.02;100.00;100339.66;5051649;28;20041;-71
2023/08/06 03:56:40;;;;;;;24.85;19.65;;;;;;;15.91;100.00;100344.34;5045420;28;20041;-71
2023/08/06 03:59:05;;;;;;;28.45;18.42;;;;;;;15.95;100.00;100340.38;5045461;28;20045;-71
2023/08/06 04:01:31;;;;;;;29.60;19.60;;;;;;;15.93;100.00;100337.84;5047529;28;20541;-70
2023/08/06 04:03:56;;;;;;;22.65;16.52;;;;;;;15.95;100.00;100343.06;5073311;27;20127;-70
2023/08/06 04:06:22;;;;;;;31.13;19.25;;;;;;;15.93;100.00;100342.38;5049903;28;20049;-70
2023/08/06 04:08:48;;;;;;;29.60;19.05;;;;;;;15.96;100.00;100347.44;5041508;28;20040;-70
2023/08/06 04:11:13;;;;;;;31.30;20.63;;;;;;;15.89;100.00;100349.88;5046925;28;20045;-70
2023/08/06 04:13:44;;;;;;;31.85;20.42;;;;;;;15.82;100.00;100347.91;5050191;28;20736;-70
2023/08/06 04:16:10;;;;;;;27.60;18.42;;;;;;;15.95;100.00;100349.28;5049793;28;20140;-70
2023/08/06 04:18:36;;;;;;;29.83;20.77;;;;;;;15.93;100.00;100340.53;5039392;28;21161;-70
2023/08/06 04:21:02;;;;;;;33.15;18.88;;;;;;;15.97;100.00;100344.63;5037821;28;20029;-70
2023/08/06 04:23:27;;;;;;;32.13;17.55;;;;;;;16.00;100.00;100351.53;5047948;28;20127;-70
2023/08/06 04:25:57;;;;;;;29.63;19.30;;;;;;;16.02;100.00;100347.75;5078519;27;20029;-70
2023/08/06 04:28:25;;;;;;;34.35;19.42;;;;;;;16.08;100.00;100346.31;5047222;28;20913;-70
2023/08/06 04:30:51;;;;;;;28.35;18.38;;;;;;;16.16;100.00;100335.66;5047289;28;20037;-70
2023/08/06 04:33:16;;;;;;;28.58;19.25;;;;;;;16.10;100.00;100347.00;5047285;28;20050;-70
2023/08/06 04:35:43;;;;;;;27.00;18.88;;;;;;;16.02;100.00;100344.19;5045809;28;20037;-70
2023/08/06 04:38:08;;;;;;;36.58;19.88;;;;;;;15.95;100.00;100343.91;5081739;27;20400;-70
2023/08/06 04:40:35;;;;;;;32.15;20.20;;;;;;;15.99;100.00;100347.16;5046078;28;20598;-70
2023/08/06 04:43:01;;;;;;;28.33;20.02;;;;;;;15.91;100.00;100350.56;5060085;28;20037;-70
2023/08/06 04:45:28;;;;;;;29.63;20.15;;;;;;;15.93;100.00;100353.13;5049338;28;20049;-70
2023/08/06 04:47:54;;;;;;;30.73;20.50;;;;;;;15.87;100.00;100359.94;5039527;28;20060;-70
2023/08/06 04:50:20;;;;;;;28.38;18.23;;;;;;;15.94;100.00;100363.72;5043407;28;20041;-70
2023/08/06 04:52:45;;;;;;;32.45;21.20;;;;;;;15.85;100.00;100369.13;5043799;28;20048;-70
2023/08/06 04:55:11;;;;;;;28.33;19.17;;;;;;;15.81;100.00;100368.53;5047895;28;20397;-70
2023/08/06 04:57:36;;;;;;;31.77;19.75;;;;;;;15.73;100.00;100377.34;5044260;28;20044;-71
2023/08/06 05:00:02;;;;;;;29.10;18.27;;;;;;;15.82;100.00;100375.66;5045341;28;20037;-70
2023/08/06 05:02:28;;;;;;;32.63;19.52;;;;;;;15.82;100.00;100389.09;5041812;28;21016;-70
2023/08/06 05:04:53;;;;;;;34.97;19.58;;;;;;;15.92;100.00;100381.03;5046457;28;20049;-70
2023/08/06 05:07:19;;;;;;;33.85;19.10;;;;;;;15.85;100.00;100382.56;5084140;27;20048;-71
2023/08/06 05:09:46;;;;;;;30.90;19.27;;;;;;;15.65;100.00;100387.94;5045640;28;20051;-70
2023/08/06 05:12:11;;;;;;;31.40;21.08;;;;;;;15.71;100.00;100398.16;5043741;28;20419;-70
2023/08/06 05:14:37;;;;;;;31.38;19.42;;;;;;;15.75;100.00;100398.69;5065038;28;20044;-70
2023/08/06 05:17:04;;;;;;;35.88;21.85;;;;;;;15.62;100.00;100390.91;5045576;28;20036;-71
2023/08/06 05:19:30;;;;;;;33.67;21.95;;;;;;;15.85;100.00;100396.00;5041014;28;20889;-70
2023/08/06 05:21:55;;;;;;;33.75;22.92;;;;;;;15.74;100.00;100392.47;5034694;28;20124;-70
2023/08/06 05:24:21;;;;;;;41.90;25.23;;;;;;;15.71;100.00;100395.47;5053046;28;20743;-70
2023/08/06 05:26:47;;;;;;;34.95;23.45;;;;;;;15.86;100.00;100403.06;5049960;28;20541;-70
2023/08/06 05:29:13;;;;;;;47.40;26.95;;;;;;;15.76;100.00;100405.75;5049102;28;20033;-69
2023/08/06 05:31:39;;;;;;;47.13;26.77;;;;;;;15.72;100.00;100413.28;5041706;28;20037;-70
2023/08/06 05:34:04;;;;;;;39.10;25.40;;;;;;;15.92;100.00;100414.13;5078237;27;20467;-70
2023/08/06 05:36:30;;;;;;;49.85;27.70;;;;;;;15.90;100.00;100420.63;5049363;28;20045;-70
2023/08/06 05:38:55;;;;;;;44.60;29.67;;;;;;;16.00;100.00;100421.47;5047525;28;20040;-70
2023/08/06 05:41:22;;;;;;;38.58;27.42;;;;;;;15.89;100.00;100427.84;5045937;28;20832;-70
2023/08/06 05:43:48;;;;;;;47.17;27.95;;;;;;;15.99;100.00;100433.22;5054899;28;20120;-70
2023/08/06 05:46:13;;;;;;;41.00;27.08;;;;;;;16.10;100.00;100424.16;5044226;28;20053;-70
2023/08/06 05:48:39;;;;;;;45.25;29.92;;;;;;;15.92;100.00;100424.03;5041386;28;20076;-70
2023/08/06 05:51:06;;;;;;;46.88;29.95;;;;;;;15.86;100.00;100438.03;5051330;28;20131;-70
2023/08/06 05:53:31;;;;;;;49.60;28.98;;;;;;;15.97;100.00;100446.81;5041867;28;20120;-69
2023/08/06 05:55:57;;;;;;;46.88;30.77;;;;;;;16.01;100.00;100442.88;5051058;28;20656;-70
2023/08/06 05:58:25;;;;;;;43.08;29.65;;;;;;;16.16;100.00;100443.25;5047888;28;20029;-70
2023/08/06 06:00:51;;;;;;;40.20;29.27;;;;;;;16.24;100.00;100432.63;5048776;28;20041;-69
2023/08/06 06:03:17;;;;;;;42.75;29.13;;;;;;;16.25;100.00;100437.03;5054756;28;20908;-70
2023/08/06 06:05:42;;;;;;;45.72;29.67;;;;;;;16.35;100.00;100441.53;5057251;28;20033;-70
2023/08/06 06:08:08;;;;;;;41.67;29.02;;;;;;;16.23;100.00;100433.63;5047943;28;20758;-70
2023/08/06 06:10:34;;;;;;;44.40;30.25;;;;;;;16.21;100.00;100438.28;5054622;28;20740;-71
2023/08/06 06:13:00;;;;;;;45.10;29.42;;;;;;;16.31;100.00;100444.53;5049517;28;20029;-70
2023/08/06 06:15:26;;;;;;;41.30;28.90;;;;;;;16.30;100.00;100437.44;5061333;28;20033;-70
2023/08/06 06:17:51;;;;;;;37.08;27.73;;;;;;;16.27;100.00;100448.50;5051801;28;20037;-70
2023/08/06 06:20:17;;;;;;;36.95;26.73;;;;;;;16.48;100.00;100447.47;5052212;28;20040;-70
2023/08/06 06:22:42;;;;;;;36.28;26.45;;;;;;;16.54;100.00;100446.88;5046023;28;20029;-70
2023/08/06 06:25:09;;;;;;;37.20;27.10;;;;;;;16.55;100.00;100435.97;5056039;28;20115;-71
2023/08/06 06:27:35;;;;;;;35.03;25.60;;;;;;;16.62;100.00;100433.56;5048448;28;20045;-70
2023/08/06 06:30:01;;;;;;;38.38;26.60;;;;;;;16.88;100.00;100428.41;5053723;28;20775;-70
2023/08/06 06:32:26;;;;;;;40.47;27.70;;;;;;;16.85;100.00;100426.00;5060953;28;20037;-70
2023/08/06 06:34:52;;;;;;;43.55;28.60;;;;;;;17.07;100.00;100430.16;5055179;28;20736;-70
2023/08/06 06:37:17;;;;;;;36.40;28.00;;;;;;;17.03;100.00;100428.75;5049810;28;20475;-70
2023/08/06 06:39:44;;;;;;;40.55;27.17;;;;;;;17.06;100.00;100423.91;5050249;28;20850;-70
2023/08/06 06:42:10;;;;;;;39.17;26.13;;;;;;;17.01;100.00;100426.19;5050740;28;20044;-70
2023/08/06 06:44:41;;;;;;;39.35;28.08;;;;;;;17.30;100.00;100423.34;5048492;28;20529;-70
2023/08/06 06:47:07;;;;;;;39.28;27.30;;;;;;;17.48;100.00;100420.69;5054156;28;20051;-70
2023/08/06 06:49:33;;;;;;;39.25;26.83;;;;;;;17.25;100.00;100422.97;5048339;28;20812;-70
2023/08/06 06:51:58;;;;;;;39.03;24.92;;;;;;;17.41;100.00;100418.75;5054265;28;20103;-70
2023/08/06 06:54:24;;;;;;;35.83;25.65;;;;;;;17.72;100.00;100421.94;5051685;28;20044;-70
2023/08/06 06:56:49;;;;;;;37.17;25.85;;;;;;;17.30;100.00;100417.13;5042739;28;20121;-70
2023/08/06 06:59:15;;;;;;;38.60;25.48;;;;;;;17.32;100.00;100418.69;5046382;28;20033;-69
2023/08/06 07:01:40;;;;;;;37.30;25.73;;;;;;;17.23;100.00;100421.44;5051136;28;20029;-70
2023/08/06 07:04:06;;;;;;;34.22;23.92;;;;;;;17.71;100.00;100422.94;5047303;28;20493;-70
2023/08/06 07:06:32;;;;;;;38.58;26.90;;;;;;;17.86;100.00;100424.13;5050289;28;20061;-69
2023/08/06 07:08:57;;;;;;;34.50;25.20;;;;;;;17.96;100.00;100419.50;5044222;28;20052;-70
2023/08/06 07:11:23;;;;;;;35.17;26.75;;;;;;;17.49;100.00;100422.38;5048747;28;20033;-70
2023/08/06 07:13:55;;;;;;;34.67;26.48;;;;;;;17.58;100.00;100426.03;5053475;28;20095;-70
2023/08/06 07:16:21;;;;;;;35.75;25.90;;;;;;;17.59;100.00;100422.31;5055575;28;20032;-70
2023/08/06 07:18:46;;;;;;;32.72;24.85;;;;;;;17.62;100.00;100430.13;5047235;28;20083;-70
2023/08/06 07:21:12;;;;;;;33.80;26.75;;;;;;;17.59;100.00;100430.41;5052292;28;20041;-71
2023/08/06 07:23:37;;;;;;;35.83;26.23;;;;;;;17.60;100.00;100432.09;5038253;28;20026;-70
2023/08/06 07:26:03;;;;;;;38.17;28.60;;;;;;;17.56;100.00;100431.56;5063420;28;20028;-70
2023/08/06 07:28:28;;;;;;;45.03;28.65;;;;;;;17.61;100.00;100436.50;5048253;28;20052;-70
2023/08/06 07:30:54;;;;;;;40.33;28.17;;;;;;;18.08;100.00;100433.63;5051843;28;20032;-70
2023/08/06 07:33:19;;;;;;;37.53;27.13;;;;;;;17.67;100.00;100438.59;5049587;28;20724;-70
2023/08/06 07:35:45;;;;;;;36.70;27.65;;;;;;;17.93;100.00;100437.88;5049207;28;20040;-70
2023/08/06 07:38:10;;;;;;;43.78;29.70;;;;;;;18.19;100.00;100443.31;5053798;28;20040;-70
2023/08/06 07:40:37;;;;;;;39.80;28.45;;;;;;;18.45;100.00;100433.38;5046571;28;20033;-70
2023/08/06 07:43:03;;;;;;;36.30;26.17;;;;;;;18.69;100.00;100435.44;5046366;28;20130;-71
2023/08/06 07:45:33;;;;;;;32.22;24.80;;;;;;;18.77;100.00;100424.66;5045668;28;20034;-70
2023/08/06 07:47:59;;;;;;;31.27;24.58;;;;;;;18.74;100.00;100435.81;5046799;28;20102;-70
2023/08/06 07:50:24;;;;;;;36.08;26.45;;;;;;;18.61;100.00;100429.94;5051127;28;20060;-70
2023/08/06 07:52:50;;;;;;;33.03;24.90;;;;;;;18.73;100.00;100428.72;5045567;28;20037;-70
2023/08/06 07:55:15;;;;;;;35.20;26.77;;;;;;;18.97;100.00;100414.44;5086225;27;20034;-70
2023/08/06 07:57:41;;;;;;;37.65;28.20;;;;;;;18.68;100.00;100422.94;5044164;28;20140;-70
2023/08/06 08:00:07;;;;;;;30.13;24.33;;;;;;;18.60;100.00;100423.69;5040850;28;20037;-70
2023/08/06 08:02:38;;;;;;;33.28;26.67;;;;;;;18.28;100.00;100431.59;5043207;28;20088;-71
2023/08/06 08:05:04;;;;;;;39.92;27.23;;;;;;;18.02;100.00;100437.78;5048407;28;20045;-70
2023/08/06 08:07:30;;;;;;;31.17;24.88;;;;;;;18.40;100.00;100429.47;5050029;28;20059;-70
2023/08/06 08:09:56;;;;;;;32.03;23.83;;;;;;;18.41;100.00;100431.16;5048314;28;20055;-71
2023/08/06 08:12:22;;;;;;;32.55;25.58;;;;;;;18.29;100.00;100427.88;5049904;28;20044;-70
2023/08/06 08:14:47;;;;;;;35.30;27.42;;;;;;;18.34;100.00;100430.94;5051423;28;20096;-70
2023/08/06 08:17:14;;;;;;;29.88;23.65;;;;;;;18.16;100.00;100443.59;5044978;28;20057;-70
2023/08/06 08:19:43;;;;;;;29.75;22.80;;;;;;;18.05;100.00;100428.50;5046352;28;20033;-70
2023/08/06 08:22:08;;;;;;;34.67;23.38;;;;;;;18.18;100.00;100434.38;5044217;28;20025;-71
2023/08/06 08:24:34;;;;;;;31.67;24.08;;;;;;;18.44;100.00;100431.69;5037835;28;20029;-70
2023/08/06 08:27:00;;;;;;;30.73;24.65;;;;;;;18.69;100.00;100431.88;5049382;28;20052;-70
2023/08/06 08:29:25;;;;;;;25.45;21.67;;;;;;;18.76;100.00;100428.38;5047109;28;20025;-71
2023/08/06 08:31:51;;;;;;;29.00;23.27;;;;;;;18.67;100.00;100440.09;5046469;28;20124;-70
2023/08/06 08:34:17;;;;;;;25.58;21.20;;;;;;;18.53;100.00;100432.59;5045656;28;20039;-72
2023/08/06 08:36:43;;;;;;;28.20;22.92;;;;;;;18.46;100.00;100439.63;5046820;28;20053;-71
2023/08/06 08:39:09;;;;;;;25.38;21.48;;;;;;;18.53;100.00;100435.31;5048056;28;20029;-72
2023/08/06 08:41:36;;;;;;;29.98;22.42;;;;;;;18.53;100.00;100436.16;5053737;28;20588;-71
2023/08/06 08:44:02;;;;;;;23.75;20.40;;;;;;;18.67;100.00;100440.09;5042717;28;20553;-71
2023/08/06 08:46:31;;;;;;;26.05;21.58;;;;;;;18.72;100.00;100439.66;5048643;28;20041;-72
2023/08/06 08:48:59;;;;;;;32.38;22.30;;;;;;;18.93;100.00;100431.19;5049685;28;20033;-71
2023/08/06 08:51:27;;;;;;;22.00;19.70;;;;;;;18.97;100.00;100429.81;5047221;28;20037;-71
2023/08/06 08:53:56;;;;;;;24.23;20.63;;;;;;;18.94;100.00;100433.72;5054047;28;20037;-71
2023/08/06 08:56:22;;;;;;;21.02;18.10;;;;;;;19.15;100.00;100430.59;5044336;28;20552;-72
2023/08/06 08:58:48;;;;;;;21.80;18.40;;;;;;;19.12;100.00;100425.50;5082694;27;20584;-71
2023/08/06 09:01:15;;;;;;;24.85;19.20;;;;;;;19.10;100.00;100441.03;5047300;28;20065;-71
2023/08/06 09:03:43;;;;;;;23.25;19.83;;;;;;;19.03;100.00;100434.59;5052084;28;20051;-71
2023/08/06 09:06:11;;;;;;;25.38;20.08;;;;;;;19.05;100.00;100444.22;5064411;28;20034;-71
2023/08/06 09:08:43;;;;;;;26.38;19.80;;;;;;;18.95;100.00;100446.22;5078855;27;20140;-72
2023/08/06 09:11:12;;;;;;;24.15;18.10;;;;;;;19.04;100.00;100444.41;5043921;28;20037;-71
2023/08/06 09:13:38;;;;;;;19.58;17.52;;;;;;;19.00;100.00;100443.03;5040607;28;20215;-71
2023/08/06 09:16:04;;;;;;;21.30;16.95;;;;;;;18.93;100.00;100442.00;5038434;28;20254;-70
2023/08/06 09:18:31;;;;;;;18.23;15.93;;;;;;;19.09;100.00;100442.91;5048921;28;20841;-71
2023/08/06 09:20:57;;;;;;;22.17;17.65;;;;;;;19.28;100.00;100444.50;5049133;28;20056;-71
2023/08/06 09:23:31;;;;;;;21.35;17.25;;;;;;;19.14;100.00;100451.38;5042288;28;20056;-71
2023/08/06 09:25:57;;;;;;;19.58;15.00;;;;;;;19.10;100.00;100444.59;5040854;28;20086;-71
2023/08/06 09:28:24;;;;;;;19.23;15.63;;;;;;;19.00;100.00;100456.53;5050484;28;20037;-71
2023/08/06 09:30:50;;;;;;;22.35;17.08;;;;;;;19.09;100.00;100456.41;5052997;28;20056;-72
2023/08/06 09:33:19;;;;;;;18.42;14.40;;;;;;;19.16;100.00;100448.50;5058836;28;20049;-71
2023/08/06 09:35:46;;;;;;;17.48;15.35;;;;;;;19.80;100.00;100449.75;5044809;28;20096;-71
2023/08/06 09:38:12;;;;;;;18.38;13.32;;;;;;;19.61;100.00;100448.19;5054284;28;20509;-70
2023/08/06 09:40:39;;;;;;;15.00;12.68;;;;;;;20.18;100.00;100444.69;5062359;28;20079;-71
2023/08/06 09:43:06;;;;;;;16.05;14.05;;;;;;;20.35;100.00;100443.69;5048523;28;20040;-71
2023/08/06 09:45:33;;;;;;;14.50;12.32;;;;;;;20.53;100.00;100451.63;5048620;28;20104;-71
2023/08/06 09:48:00;;;;;;;15.13;12.13;;;;;;;20.55;100.00;100443.34;5052595;28;20052;-71
2023/08/06 09:50:35;;;;;;;12.60;10.80;;;;;;;21.07;100.00;100437.44;5047039;28;20037;-71
2023/08/06 09:53:03;;;;;;;17.52;12.85;;;;;;;21.12;100.00;100440.47;5039186;28;20041;-71
2023/08/06 09:55:29;;;;;;;17.80;14.60;;;;;;;20.77;100.00;100442.63;5058802;28;20099;-71
2023/08/06 09:57:55;;;;;;;11.10;10.00;;;;;;;20.73;100.00;100443.97;5052417;28;20041;-71
2023/08/06 10:00:21;;;;;;;13.23;11.85;;;;;;;21.33;100.00;100448.03;5045000;28;20156;-71
2023/08/06 10:02:48;;;;;;;17.85;12.95;;;;;;;21.43;100.00;100443.25;5043594;28;20032;-71
2023/08/06 10:05:15;;;;;;;17.58;15.75;;;;;;;21.41;100.00;100446.13;5047296;28;20128;-71
2023/08/06 10:07:43;;;;;;;20.05;16.13;;;;;;;21.39;100.00;100447.34;5051766;28;20234;-71
2023/08/06 10:10:09;;;;;;;20.45;16.58;;;;;;;21.11;100.00;100444.22;5070292;28;20056;-71
2023/08/06 10:12:40;;;;;;;20.60;16.65;;;;;;;20.88;100.00;100450.41;5066257;28;20791;-71
2023/08/06 10:15:09;;;;;;;21.90;16.40;;;;;;;20.60;100.00;100454.53;5061321;28;20796;-71
2023/08/06 10:17:37;;;;;;;21.77;16.00;;;;;;;20.19;100.00;100446.41;5066051;28;20388;-71
2023/08/06 10:20:08;;;;;;;18.33;16.25;;;;;;;20.02;100.00;100459.06;5052135;28;20028;-71
2023/08/06 10:22:34;;;;;;;23.20;18.63;;;;;;;19.68;100.00;100459.19;5050351;28;20025;-71
2023/08/06 10:25:04;;;;;;;21.58;19.27;;;;;;;19.39;100.00;100465.84;5047674;28;20029;-71
2023/08/06 10:27:33;;;;;;;21.90;19.42;;;;;;;19.15;100.00;100463.03;5045486;28;20056;-71
2023/08/06 10:30:25;;;;;;;23.63;21.00;;;;;;;18.76;100.00;100474.28;5064702;28;20029;-71
2023/08/06 10:32:57;;;;;;;21.42;19.25;;;;;;;18.37;100.00;100482.78;5048044;28;20035;-71
2023/08/06 10:35:37;;;;;;;23.90;21.33;;;;;;;18.15;100.00;100498.59;5046324;28;20084;-71
2023/08/06 10:38:09;;;;;;;25.67;22.90;;;;;;;18.03;100.00;100503.38;5052257;28;20116;-71
2023/08/06 10:40:37;;;;;;;23.75;21.10;;;;;;;17.95;100.00;100506.84;5062646;27;20040;-71
2023/08/06 10:43:03;;;;;;;36.20;25.13;;;;;;;17.85;100.00;100523.09;5050017;28;20032;-71
2023/08/06 10:45:30;;;;;;;38.90;25.73;;;;;;;17.80;100.00;100522.69;5053506;28;20688;-71
2023/08/06 10:47:57;;;;;;;55.53;26.70;;;;;;;17.85;100.00;100527.63;5052780;28;20040;-70
2023/08/06 10:50:24;;;;;;;44.42;27.30;;;;;;;17.90;100.00;100535.28;5051897;28;20139;-70
2023/08/06 10:52:50;;;;;;;42.28;26.63;;;;;;;17.86;100.00;100534.72;5065109;27;20432;-70
2023/08/06 10:55:29;;;;;;;37.38;25.50;;;;;;;17.70;100.00;100535.34;5048947;28;20032;-70
2023/08/06 10:57:56;;;;;;;35.08;25.27;;;;;;;17.68;100.00;100528.44;5083004;27;20041;-70
2023/08/06 11:00:23;;;;;;;32.35;23.80;;;;;;;17.77;100.00;100547.28;5046588;28;20045;-70